Time;durP1;ratioP1;P1;durP2;ratioP2;P2;SDS_P1;SDS_P2;PMS_P1;PMS_P2;Temp;Humidity;BMP_temperature;BMP_pressure;BME280_temperature;BME280_humidity;BME280_pressure;Samples;Min_cycle;Max_cycle;Signal;HPM_P1;HPM_P2
2022/10/29 00:01:05;;;;;;;5.72;0.73;;;;;;;12.60;76.13;100351.09;4989014;28;20074;-50
2022/10/29 00:03:33;;;;;;;7.75;0.93;;;;;;;12.62;76.42;100342.41;4994704;28;20069;-51
2022/10/29 00:06:02;;;;;;;8.70;1.00;;;;;;;12.62;76.08;100350.19;4991887;28;20074;-46
2022/10/29 00:08:31;;;;;;;12.85;2.63;;;;;;;12.59;75.48;100354.56;4990044;28;20053;-50
2022/10/29 00:13:42;;;;;;;10.38;1.48;;;;;;;12.59;76.49;100359.75;5020537;28;20420;-53
2022/10/29 00:16:12;;;;;;;3.45;1.73;;;;;;;12.60;75.91;100358.88;4985579;28;20141;-50
2022/10/29 00:18:39;;;;;;;6.18;1.67;;;;;;;12.60;76.13;100351.09;4983728;28;20054;-51
2022/10/29 00:21:09;;;;;;;8.23;1.38;;;;;;;12.60;76.70;100358.88;4979723;28;20074;-49
2022/10/29 00:23:36;;;;;;;7.78;1.63;;;;;;;12.58;76.20;100352.84;4976354;28;20477;-56
2022/10/29 00:26:03;;;;;;;11.68;1.90;;;;;;;12.59;75.98;100354.56;4975746;28;20050;-51
2022/10/29 00:28:31;;;;;;;8.43;1.70;;;;;;;12.60;75.84;100356.28;4980538;28;20046;-49
2022/10/29 00:31:03;;;;;;;7.05;1.38;;;;;;;12.59;76.83;100348.50;4983636;28;20062;-51
2022/10/29 00:33:30;;;;;;;9.82;1.23;;;;;;;12.62;77.14;100347.59;4986120;28;20155;-46
2022/10/29 00:36:04;;;;;;;5.97;1.80;;;;;;;12.60;77.52;100340.69;4988816;28;20054;-52
2022/10/29 00:38:32;;;;;;;6.20;1.10;;;;;;;12.63;76.90;100333.75;5013330;28;20058;-54
2022/10/29 00:40:58;;;;;;;2.90;1.48;;;;;;;12.63;77.25;100334.59;5014072;28;20079;-50
2022/10/29 00:43:26;;;;;;;10.38;1.95;;;;;;;12.62;77.68;100332.88;4977482;28;20046;-46
2022/10/29 00:46:00;;;;;;;9.45;0.98;;;;;;;12.62;76.82;100332.88;4984129;28;20760;-52
2022/10/29 00:48:30;;;;;;;6.57;1.65;;;;;;;12.63;76.64;100344.16;4985057;28;20161;-50
2022/10/29 00:51:00;;;;;;;7.88;1.02;;;;;;;12.65;75.97;100345.00;4984692;28;20049;-48
2022/10/29 00:53:32;;;;;;;3.92;1.00;;;;;;;12.60;76.61;100339.84;4986335;28;20074;-51
2022/10/29 00:55:59;;;;;;;6.97;0.93;;;;;;;12.57;77.11;100322.50;4992669;28;20133;-49
2022/10/29 00:58:27;;;;;;;5.78;1.58;;;;;;;12.52;78.03;100294.84;4986157;28;20083;-51
2022/10/29 01:00:54;;;;;;;8.02;1.30;;;;;;;12.50;76.89;100289.66;4976185;28;20185;-48
2022/10/29 01:03:21;;;;;;;10.02;1.90;;;;;;;12.43;77.90;100290.59;4973013;28;20057;-49
2022/10/29 01:05:48;;;;;;;8.82;1.65;;;;;;;12.44;77.02;100287.97;4971878;28;20050;-53
2022/10/29 01:08:15;;;;;;;9.75;1.30;;;;;;;12.45;78.08;100283.63;4980856;28;20478;-53
2022/10/29 01:14:19;;;;;;;7.78;1.52;;;;;;;12.39;77.18;100262.91;5031705;28;20398;-51
2022/10/29 01:25:44;;;;;;;9.10;0.93;;;;;;;12.41;77.48;100271.53;5092490;27;20392;-46
2022/10/29 01:28:50;;;;;;;8.48;1.38;;;;;;;12.41;77.20;100255.94;5056882;28;20061;-49
2022/10/29 01:34:28;;;;;;;5.15;1.05;;;;;;;12.43;77.60;100251.63;5036577;28;20401;-51
2022/10/29 01:37:04;;;;;;;6.95;1.30;;;;;;;12.48;77.89;100249.84;5009466;28;20054;-49
2022/10/29 01:42:27;;;;;;;4.40;2.47;;;;;;;12.47;76.76;100232.53;5031116;27;20397;-51
2022/10/29 01:45:09;;;;;;;8.77;3.78;;;;;;;12.52;78.31;100233.34;5035195;28;20038;-50
2022/10/29 01:47:43;;;;;;;6.53;3.10;;;;;;;12.56;77.47;100232.47;5022505;28;20079;-53
2022/10/29 01:50:15;;;;;;;9.88;2.58;;;;;;;12.58;77.27;100230.72;5020197;28;20069;-53
2022/10/29 01:52:43;;;;;;;8.32;3.00;;;;;;;12.57;77.05;100247.16;5027061;28;20072;-48
2022/10/29 01:55:15;;;;;;;6.22;3.08;;;;;;;12.56;77.44;100253.25;5023293;28;20079;-52
2022/10/29 01:57:41;;;;;;;5.80;2.38;;;;;;;12.56;76.83;100250.66;5030053;28;20041;-52
2022/10/29 02:00:11;;;;;;;12.90;2.95;;;;;;;12.56;76.79;100240.25;5025171;28;20052;-49
2022/10/29 02:05:43;;;;;;;5.65;1.55;;;;;;;12.56;77.58;100248.03;5028173;28;20853;-57
2022/10/29 02:08:24;;;;;;;11.10;1.63;;;;;;;12.54;77.44;100241.16;5008940;28;20144;-48
2022/10/29 02:11:00;;;;;;;8.35;1.25;;;;;;;12.57;77.28;100246.31;5016829;28;20074;-48
2022/10/29 02:13:32;;;;;;;6.32;1.77;;;;;;;12.57;77.84;100239.38;5012589;28;20120;-50
2022/10/29 02:16:03;;;;;;;6.47;0.95;;;;;;;12.60;77.09;100244.56;5016673;28;20041;-52
2022/10/29 02:18:29;;;;;;;15.85;2.10;;;;;;;12.62;77.54;100243.66;5012645;28;20128;-50
2022/10/29 02:20:56;;;;;;;9.18;0.88;;;;;;;12.63;76.88;100232.41;5008479;28;20560;-49
2022/10/29 02:23:23;;;;;;;9.00;1.65;;;;;;;12.65;77.55;100238.44;5003371;28;20131;-50
2022/10/29 02:25:49;;;;;;;6.97;1.13;;;;;;;12.65;78.20;100220.25;5009086;28;20410;-48
2022/10/29 02:28:16;;;;;;;10.50;1.58;;;;;;;12.67;77.21;100221.13;5014203;28;20057;-56
2022/10/29 02:30:43;;;;;;;14.90;2.55;;;;;;;12.68;77.16;100213.31;5015194;28;20474;-47
2022/10/29 02:33:10;;;;;;;9.63;1.30;;;;;;;12.69;76.78;100216.75;5006169;28;20137;-53
2022/10/29 02:35:36;;;;;;;13.73;1.30;;;;;;;12.70;77.79;100221.09;5005154;28;20179;-54
2022/10/29 02:38:03;;;;;;;11.93;1.52;;;;;;;12.69;76.93;100220.22;5009476;28;20053;-48
2022/10/29 02:40:30;;;;;;;6.70;1.50;;;;;;;12.69;76.66;100221.97;5012449;28;20054;-49
2022/10/29 02:42:56;;;;;;;10.35;1.20;;;;;;;12.68;77.24;100215.03;5011228;28;20115;-49
2022/10/29 02:45:24;;;;;;;7.03;1.50;;;;;;;12.69;77.30;100214.16;5011425;28;20991;-49
2022/10/29 02:47:50;;;;;;;7.72;1.10;;;;;;;12.69;76.45;100216.75;5015426;28;20121;-53
2022/10/29 02:50:17;;;;;;;13.27;2.10;;;;;;;12.69;77.60;100207.25;5008262;28;20045;-47
2022/10/29 02:52:44;;;;;;;9.10;1.20;;;;;;;12.69;76.69;100208.97;5006837;28;22039;-45
2022/10/29 02:55:11;;;;;;;7.43;1.35;;;;;;;12.70;77.36;100208.09;5010993;28;20115;-53
2022/10/29 02:57:37;;;;;;;10.57;1.30;;;;;;;12.71;76.52;100213.25;5011194;28;20533;-50
2022/10/29 03:00:04;;;;;;;14.77;1.50;;;;;;;12.70;76.71;100200.31;5016746;28;20053;-47
2022/10/29 03:02:31;;;;;;;8.23;1.25;;;;;;;12.70;77.18;100184.72;5012099;28;20076;-47
2022/10/29 03:04:58;;;;;;;11.38;1.38;;;;;;;12.70;76.95;100185.56;5005239;28;20672;-46
2022/10/29 03:07:24;;;;;;;10.13;1.60;;;;;;;12.69;76.49;100188.16;5011753;28;20057;-53
2022/10/29 03:09:51;;;;;;;6.95;1.27;;;;;;;12.70;76.61;100184.72;5012425;28;20050;-47
2022/10/29 03:12:18;;;;;;;7.22;1.10;;;;;;;12.70;77.09;100184.72;5005530;28;20041;-50
2022/10/29 03:14:44;;;;;;;9.63;1.40;;;;;;;12.70;77.58;100175.16;5007622;28;20049;-47
2022/10/29 03:17:11;;;;;;;8.48;1.13;;;;;;;12.69;77.49;100172.59;4998890;28;20109;-44
2022/10/29 03:19:38;;;;;;;7.65;1.17;;;;;;;12.69;76.30;100165.66;4996597;28;20042;-48
2022/10/29 03:22:04;;;;;;;8.88;1.23;;;;;;;12.70;77.23;100158.72;4997453;28;20061;-46
2022/10/29 03:24:31;;;;;;;4.60;1.63;;;;;;;12.69;77.56;100151.78;4993890;28;20042;-51
2022/10/29 03:26:58;;;;;;;9.10;2.15;;;;;;;12.68;76.64;100147.47;4995903;28;20069;-50
2022/10/29 03:29:24;;;;;;;9.50;1.33;;;;;;;12.68;77.40;100152.69;4998166;28;20849;-48
2022/10/29 03:31:51;;;;;;;6.32;1.40;;;;;;;12.68;76.66;100165.66;4999015;28;20081;-50
2022/10/29 03:34:18;;;;;;;10.48;1.40;;;;;;;12.68;77.55;100165.66;4996020;28;20050;-49
2022/10/29 03:36:45;;;;;;;10.70;1.42;;;;;;;12.67;77.56;100163.94;4994471;28;20096;-49
2022/10/29 03:39:11;;;;;;;12.35;1.35;;;;;;;12.67;77.27;100158.75;4999188;28;20107;-51
2022/10/29 03:41:38;;;;;;;11.43;2.03;;;;;;;12.67;77.07;100148.38;4992528;28;20507;-44
2022/10/29 03:44:05;;;;;;;7.70;1.42;;;;;;;12.67;77.55;100137.97;4994343;28;20070;-48
2022/10/29 03:46:32;;;;;;;4.88;1.73;;;;;;;12.68;77.47;100134.47;4996334;28;20124;-47
2022/10/29 03:48:59;;;;;;;8.50;1.38;;;;;;;12.66;77.83;100126.69;4992859;28;20077;-48
2022/10/29 03:51:26;;;;;;;9.20;1.20;;;;;;;12.66;77.44;100118.06;5006489;28;20046;-49
2022/10/29 03:53:53;;;;;;;9.38;1.50;;;;;;;12.66;77.31;100118.06;4997067;28;20606;-49
2022/10/29 03:56:19;;;;;;;9.82;1.38;;;;;;;12.65;77.97;100103.31;4997436;28;20138;-54
2022/10/29 03:58:46;;;;;;;5.65;1.98;;;;;;;12.63;77.31;100098.16;4996235;28;20049;-46
2022/10/29 04:01:12;;;;;;;6.53;1.02;;;;;;;12.60;77.60;100093.84;4996502;28;20619;-50
2022/10/29 04:03:41;;;;;;;10.52;1.40;;;;;;;12.60;77.72;100106.84;4994778;28;20088;-54
2022/10/29 04:06:11;;;;;;;12.13;2.00;;;;;;;12.62;77.26;100113.75;4995994;28;20517;-45
2022/10/29 04:08:38;;;;;;;4.13;1.30;;;;;;;12.59;77.21;100110.31;4993935;28;20046;-46
2022/10/29 04:11:06;;;;;;;7.22;1.92;;;;;;;12.61;78.14;100118.09;4997008;28;20105;-50
2022/10/29 04:13:34;;;;;;;10.32;1.45;;;;;;;12.62;78.48;100112.03;5002720;28;20871;-50
2022/10/29 04:16:00;;;;;;;6.15;1.73;;;;;;;12.61;77.38;100118.09;4995800;28;20557;-44
2022/10/29 04:18:27;;;;;;;13.93;1.58;;;;;;;12.59;78.99;100118.13;5001337;28;20045;-50
2022/10/29 04:21:00;;;;;;;16.27;2.42;;;;;;;12.55;78.96;100123.34;5001976;28;20081;-45
2022/10/29 04:23:48;;;;;;;8.77;2.15;;;;;;;12.51;78.73;100117.34;4994263;28;20069;-51
2022/10/29 04:26:35;;;;;;;8.60;1.80;;;;;;;12.46;79.25;100111.31;4998057;28;20142;-50
2022/10/29 04:29:22;;;;;;;7.28;1.65;;;;;;;12.37;80.32;100114.88;4994242;28;20100;-50
2022/10/29 04:31:49;;;;;;;10.82;1.63;;;;;;;12.38;78.98;100115.72;4998613;28;20506;-52
2022/10/29 04:34:15;;;;;;;8.48;1.65;;;;;;;12.36;79.22;100107.09;4989031;28;20173;-47
2022/10/29 04:36:42;;;;;;;8.35;1.92;;;;;;;12.29;80.34;100093.31;4997649;28;20050;-45
2022/10/29 04:39:09;;;;;;;14.63;2.50;;;;;;;12.30;79.87;100092.41;4993982;28;20105;-50
2022/10/29 04:41:35;;;;;;;13.90;2.40;;;;;;;12.28;80.46;100096.75;4990455;28;20050;-52
2022/10/29 04:44:02;;;;;;;15.07;2.20;;;;;;;12.32;80.04;100091.53;4995814;28;20750;-52
2022/10/29 04:46:28;;;;;;;10.27;2.35;;;;;;;12.32;79.60;100073.34;4994348;28;20137;-50
2022/10/29 04:48:55;;;;;;;9.13;2.22;;;;;;;12.26;79.88;100064.75;4994909;28;20145;-47
2022/10/29 04:51:24;;;;;;;13.27;3.13;;;;;;;12.24;80.64;100040.53;4993381;28;20146;-49
2022/10/29 04:53:51;;;;;;;10.73;2.80;;;;;;;12.24;80.10;100046.59;4997764;28;20077;-50
2022/10/29 04:56:18;;;;;;;16.00;3.10;;;;;;;12.21;81.44;100036.22;4997795;28;20073;-46
2022/10/29 04:58:45;;;;;;;10.02;2.22;;;;;;;12.20;80.80;100013.75;4996109;28;22186;-53
2022/10/29 05:01:11;;;;;;;12.68;3.35;;;;;;;12.24;80.06;100006.78;4992109;28;20076;-51
2022/10/29 05:03:38;;;;;;;10.98;3.25;;;;;;;12.25;80.99;100004.16;4997905;28;20045;-50
2022/10/29 05:06:05;;;;;;;12.43;3.60;;;;;;;12.22;81.54;100006.78;5000804;28;20104;-49
2022/10/29 05:08:32;;;;;;;12.10;3.00;;;;;;;12.19;81.34;99988.63;4985289;28;20137;-53
2022/10/29 05:11:02;;;;;;;11.35;2.75;;;;;;;12.12;82.39;99984.41;4981250;28;20100;-53
2022/10/29 05:13:29;;;;;;;7.45;2.88;;;;;;;12.10;81.35;99980.94;4980801;28;20506;-47
2022/10/29 05:15:55;;;;;;;11.52;2.90;;;;;;;12.07;81.49;99974.06;4974446;28;20050;-49
2022/10/29 05:18:22;;;;;;;12.60;2.97;;;;;;;11.98;82.79;99968.91;4983216;28;20042;-50
2022/10/29 05:20:53;;;;;;;8.95;3.20;;;;;;;12.10;81.39;99965.38;4994425;28;20117;-47
2022/10/29 05:23:20;;;;;;;11.10;3.10;;;;;;;12.12;81.61;99974.03;5000742;28;20129;-48
2022/10/29 05:25:48;;;;;;;9.98;2.67;;;;;;;12.06;81.84;99964.56;4995325;28;20137;-48
2022/10/29 05:28:19;;;;;;;8.95;3.17;;;;;;;12.13;82.29;99960.16;4996338;28;20112;-48
2022/10/29 05:30:46;;;;;;;5.85;2.58;;;;;;;11.96;83.11;99964.59;4993127;28;20076;-48
2022/10/29 05:33:17;;;;;;;8.45;2.40;;;;;;;12.01;82.43;99959.38;4995966;28;20077;-48
2022/10/29 05:35:44;;;;;;;7.72;2.25;;;;;;;12.00;83.67;99970.66;4997469;28;20127;-49
2022/10/29 05:38:12;;;;;;;10.45;2.50;;;;;;;12.04;82.96;99987.91;4994958;28;20058;-47
2022/10/29 05:40:41;;;;;;;12.68;2.47;;;;;;;12.04;83.09;99961.06;4994396;28;20038;-49
2022/10/29 05:43:08;;;;;;;10.30;2.90;;;;;;;11.94;83.77;99934.34;4994265;28;20069;-47
2022/10/29 05:45:34;;;;;;;8.57;3.05;;;;;;;11.96;83.29;99958.56;4994139;28;20046;-46
2022/10/29 05:48:03;;;;;;;11.45;2.58;;;;;;;11.99;83.38;99963.72;4994901;28;20140;-47
2022/10/29 05:50:31;;;;;;;9.43;2.42;;;;;;;12.02;83.62;99960.25;5001723;28;20050;-53
2022/10/29 05:53:01;;;;;;;8.45;2.80;;;;;;;12.06;83.04;99946.38;5001077;28;20133;-54
2022/10/29 05:55:28;;;;;;;5.32;2.42;;;;;;;11.98;83.07;99929.97;4996947;28;20134;-47
2022/10/29 05:57:57;;;;;;;8.55;2.95;;;;;;;12.02;83.21;99906.56;4994138;28;20078;-48
2022/10/29 06:00:26;;;;;;;7.15;2.25;;;;;;;12.00;82.99;99899.69;4991643;28;20076;-50
2022/10/29 06:02:53;;;;;;;11.45;2.92;;;;;;;12.03;82.87;99897.91;4995650;28;20047;-47
2022/10/29 06:05:21;;;;;;;9.80;2.88;;;;;;;11.96;84.73;99891.09;4992788;28;20046;-48
2022/10/29 06:08:03;;;;;;;11.00;3.15;;;;;;;11.97;83.64;99898.00;4986597;28;20042;-50
2022/10/29 06:10:30;;;;;;;13.85;3.00;;;;;;;12.05;83.88;99890.97;4994833;28;20128;-47
2022/10/29 06:12:57;;;;;;;9.68;3.40;;;;;;;12.07;83.54;99898.78;4991268;28;20133;-50
2022/10/29 06:15:23;;;;;;;11.60;2.85;;;;;;;12.12;83.60;99911.72;4998639;28;20096;-47
2022/10/29 06:17:50;;;;;;;11.90;2.72;;;;;;;12.20;83.34;99925.47;5001343;28;20064;-48
2022/10/29 06:20:20;;;;;;;9.40;3.75;;;;;;;12.27;82.20;99924.53;4996222;28;20046;-48
2022/10/29 06:22:55;;;;;;;9.15;3.13;;;;;;;12.32;82.38;99920.13;4992557;28;20193;-47
2022/10/29 06:25:23;;;;;;;13.40;3.10;;;;;;;12.40;82.98;99911.38;4996284;28;20050;-49
2022/10/29 06:28:00;;;;;;;11.05;3.35;;;;;;;12.43;82.52;99906.16;4989674;28;20069;-50
2022/10/29 06:30:29;;;;;;;7.38;3.03;;;;;;;12.47;82.67;99898.28;4995713;28;20079;-48
2022/10/29 06:32:56;;;;;;;13.10;3.80;;;;;;;12.45;82.20;99894.00;4990518;28;20120;-45
2022/10/29 06:35:24;;;;;;;8.88;3.17;;;;;;;12.38;82.32;99882.81;4990365;28;20042;-50
2022/10/29 06:37:50;;;;;;;7.72;2.97;;;;;;;12.36;82.80;99889.75;4992887;28;20728;-49
2022/10/29 06:40:18;;;;;;;6.22;2.22;;;;;;;12.32;83.83;99880.28;4996988;28;20129;-46
2022/10/29 06:42:44;;;;;;;9.98;3.10;;;;;;;12.36;84.34;99881.13;4995420;28;20088;-48
2022/10/29 06:45:12;;;;;;;7.57;2.45;;;;;;;12.27;83.90;99870.00;4999593;28;20421;-52
2022/10/29 06:47:40;;;;;;;8.93;3.15;;;;;;;12.28;83.87;99866.50;4991745;28;20100;-47
2022/10/29 06:50:09;;;;;;;9.65;2.97;;;;;;;12.30;84.83;99872.53;4998436;28;20282;-48
2022/10/29 06:52:35;;;;;;;6.57;2.42;;;;;;;12.28;84.83;99866.50;4996937;28;20627;-50
2022/10/29 06:55:05;;;;;;;11.90;2.42;;;;;;;12.28;84.79;99865.63;5002922;28;20768;-44
2022/10/29 06:57:31;;;;;;;12.07;2.83;;;;;;;12.28;84.81;99866.50;5000426;28;20125;-49
2022/10/29 06:59:58;;;;;;;8.32;2.53;;;;;;;12.28;85.41;99874.28;4996795;28;20137;-50
2022/10/29 07:02:32;;;;;;;10.73;3.38;;;;;;;12.33;83.94;99882.88;4993838;28;20496;-50
2022/10/29 07:04:59;;;;;;;6.75;2.22;;;;;;;12.29;85.27;99883.78;4996548;28;20556;-52
2022/10/29 07:07:27;;;;;;;7.72;3.95;;;;;;;12.33;84.21;99895.88;4992510;28;20062;-45
2022/10/29 07:09:54;;;;;;;15.95;3.17;;;;;;;12.39;83.66;99878.50;4993572;28;20054;-51
2022/10/29 07:12:21;;;;;;;7.53;3.10;;;;;;;12.38;84.98;99879.34;4991501;28;20058;-45
2022/10/29 07:14:47;;;;;;;11.90;3.05;;;;;;;12.37;84.80;99865.53;4995118;28;20150;-47
2022/10/29 07:17:14;;;;;;;10.10;2.45;;;;;;;12.30;84.12;99872.53;4990938;28;20054;-44
2022/10/29 07:19:40;;;;;;;7.97;2.97;;;;;;;12.42;83.67;99865.44;4993074;28;20046;-51
2022/10/29 07:22:07;;;;;;;13.65;2.80;;;;;;;12.39;84.37;99870.72;4995142;28;21136;-46
2022/10/29 07:24:33;;;;;;;8.63;1.98;;;;;;;12.42;84.03;99868.06;4991468;28;21307;-48
2022/10/29 07:27:00;;;;;;;6.55;2.22;;;;;;;12.43;84.13;99854.22;4992022;28;20498;-48
2022/10/29 07:29:27;;;;;;;8.35;2.80;;;;;;;12.42;84.31;99857.66;4992732;28;20053;-48
2022/10/29 07:31:53;;;;;;;11.30;3.17;;;;;;;12.39;84.41;99870.72;4994712;28;20732;-47
2022/10/29 07:34:20;;;;;;;6.60;2.70;;;;;;;12.38;85.06;99866.38;4989926;28;20132;-50
2022/10/29 07:36:47;;;;;;;8.70;2.50;;;;;;;12.40;84.92;99854.25;4996150;28;20046;-45
2022/10/29 07:39:13;;;;;;;7.82;2.80;;;;;;;12.43;84.73;99860.25;4992943;28;20053;-48
2022/10/29 07:41:40;;;;;;;9.52;2.00;;;;;;;12.41;84.55;99853.34;4994365;28;20056;-47
2022/10/29 07:44:07;;;;;;;9.57;2.10;;;;;;;12.47;84.37;99835.09;4994697;28;20134;-48
2022/10/29 07:46:34;;;;;;;6.88;1.88;;;;;;;12.46;83.88;99849.81;4990634;28;20125;-49
2022/10/29 07:49:01;;;;;;;7.93;2.45;;;;;;;12.56;84.70;99855.75;4994092;28;20054;-46
2022/10/29 07:51:27;;;;;;;11.18;1.90;;;;;;;12.50;84.05;99855.81;4997834;28;20137;-46
2022/10/29 07:53:54;;;;;;;12.02;3.08;;;;;;;12.56;83.97;99852.28;4991090;28;20608;-47
2022/10/29 07:56:21;;;;;;;8.15;1.60;;;;;;;12.60;83.83;99872.16;4993854;28;20837;-45
2022/10/29 07:58:47;;;;;;;5.00;1.73;;;;;;;12.54;83.79;99861.84;4995348;28;20652;-46
2022/10/29 08:01:14;;;;;;;7.90;2.30;;;;;;;12.67;84.26;99865.13;4996442;28;20137;-49
2022/10/29 08:03:40;;;;;;;7.13;1.80;;;;;;;12.69;84.31;99850.34;4993249;28;20142;-47
2022/10/29 08:06:07;;;;;;;5.10;1.90;;;;;;;12.68;83.68;99859.91;4994022;28;20045;-50
2022/10/29 08:08:34;;;;;;;6.57;1.70;;;;;;;12.70;83.66;99852.94;4991012;28;20042;-47
2022/10/29 08:11:02;;;;;;;9.32;2.05;;;;;;;12.73;84.36;99852.03;4994806;28;20149;-52
2022/10/29 08:13:30;;;;;;;6.15;2.00;;;;;;;12.75;84.11;99845.09;4990997;28;20046;-44
2022/10/29 08:15:56;;;;;;;7.68;1.55;;;;;;;12.79;84.69;99851.06;4992257;28;20104;-46
2022/10/29 08:18:23;;;;;;;10.15;2.55;;;;;;;12.79;83.87;99841.56;4991103;28;20145;-47
2022/10/29 08:20:50;;;;;;;9.30;2.30;;;;;;;12.76;84.49;99836.41;4991740;28;20161;-48
2022/10/29 08:23:17;;;;;;;9.77;2.13;;;;;;;12.80;84.61;99843.25;4993438;28;20038;-46
2022/10/29 08:25:44;;;;;;;9.57;2.70;;;;;;;12.87;83.81;99840.59;4995901;28;20052;-47
2022/10/29 08:28:13;;;;;;;10.07;2.63;;;;;;;12.92;84.86;99862.16;4992376;28;20141;-51
2022/10/29 08:30:42;;;;;;;9.23;3.35;;;;;;;12.96;84.74;99850.81;4991415;28;20589;-45
2022/10/29 08:33:09;;;;;;;16.77;2.53;;;;;;;12.98;84.18;99856.88;4991735;28;20125;-51
2022/10/29 08:35:36;;;;;;;12.95;3.03;;;;;;;13.03;84.36;99852.44;4992924;28;20447;-51
2022/10/29 08:38:03;;;;;;;15.60;3.30;;;;;;;13.07;84.90;99846.31;4997350;28;20518;-48
2022/10/29 08:40:42;;;;;;;7.40;2.78;;;;;;;13.11;84.90;99855.78;4996658;28;20128;-47
2022/10/29 08:45:48;;;;;;;8.90;3.53;;;;;;;13.20;85.00;99846.09;5082777;27;20386;-47
2022/10/29 08:48:45;;;;;;;10.38;3.30;;;;;;;13.12;85.27;99833.25;5028303;28;20084;-50
2022/10/29 08:53:50;;;;;;;11.80;3.83;;;;;;;13.27;84.71;99826.06;5021816;28;20397;-49
2022/10/29 08:56:41;;;;;;;10.25;4.30;;;;;;;13.31;85.03;99833.78;5035139;28;20607;-54
2022/10/29 08:59:16;;;;;;;10.98;3.13;;;;;;;13.30;85.03;99824.25;5006439;28;20133;-46
2022/10/29 09:01:43;;;;;;;12.50;3.08;;;;;;;13.35;85.56;99829.38;5007101;28;20096;-48
2022/10/29 09:09:58;;;;;;;9.90;3.95;;;;;;;13.46;85.83;99821.38;5016202;27;20407;-47
2022/10/29 09:12:44;;;;;;;10.80;3.83;;;;;;;13.49;84.97;99816.16;4999821;28;20089;-49
2022/10/29 09:15:39;;;;;;;7.75;4.28;;;;;;;13.52;85.22;99805.69;4990156;28;20046;-47
2022/10/29 09:23:50;;;;;;;9.80;2.75;;;;;;;13.61;85.34;99805.50;5017104;28;20401;-46
2022/10/29 09:26:30;;;;;;;7.28;3.08;;;;;;;13.67;85.10;99804.53;4981141;28;20061;-49
2022/10/29 09:31:48;;;;;;;10.95;4.18;;;;;;;13.70;85.08;99801.88;5044773;27;20418;-52
2022/10/29 09:34:30;;;;;;;11.80;4.60;;;;;;;13.77;85.66;99800.00;5014208;28;20060;-45
2022/10/29 09:36:58;;;;;;;12.00;4.90;;;;;;;13.90;85.56;99799.75;5019850;28;20057;-52
2022/10/29 09:39:32;;;;;;;8.48;3.85;;;;;;;13.86;86.27;99794.63;5019643;28;20269;-47
2022/10/29 09:42:01;;;;;;;11.90;4.75;;;;;;;14.01;85.21;99798.66;5020431;28;20050;-48
2022/10/29 09:52:59;;;;;;;11.73;3.58;;;;;;;14.25;85.59;99803.34;5048378;27;20419;-52
2022/10/29 09:55:38;;;;;;;8.35;3.20;;;;;;;14.31;85.55;99803.22;5021649;28;20510;-49
2022/10/29 09:58:06;;;;;;;12.60;3.22;;;;;;;14.42;84.89;99802.16;5031452;28;20046;-50
2022/10/29 10:00:34;;;;;;;9.90;3.55;;;;;;;14.51;85.08;99801.91;5038374;28;20041;-49
2022/10/29 10:03:09;;;;;;;12.98;4.18;;;;;;;14.58;84.44;99793.06;5035631;28;20064;-51
2022/10/29 10:05:57;;;;;;;12.65;4.05;;;;;;;14.60;84.80;99783.47;5033008;28;20103;-48
2022/10/29 10:08:24;;;;;;;12.05;3.67;;;;;;;14.67;84.41;99796.34;5049715;28;20136;-48
2022/10/29 10:10:55;;;;;;;10.13;3.58;;;;;;;14.63;85.01;99786.00;5065658;28;20256;-53
2022/10/29 10:13:25;;;;;;;15.00;4.00;;;;;;;14.75;84.63;99789.19;5032433;28;20098;-49
2022/10/29 10:15:56;;;;;;;12.50;4.32;;;;;;;14.79;84.22;99785.66;5036624;28;20056;-50
2022/10/29 10:18:26;;;;;;;8.18;3.22;;;;;;;14.79;84.34;99788.25;5016612;28;20054;-44
2022/10/29 10:21:22;;;;;;;12.23;4.40;;;;;;;14.85;84.77;99785.50;5019543;28;20077;-46
2022/10/29 10:23:51;;;;;;;12.35;3.83;;;;;;;14.94;84.58;99789.66;5015862;28;20132;-51
2022/10/29 10:29:23;;;;;;;6.72;2.80;;;;;;;14.98;84.29;99795.63;5027403;28;20400;-48
2022/10/29 10:42:38;;;;;;;14.85;4.25;;;;;;;15.46;84.15;99776.13;5062490;27;20410;-51
2022/10/29 10:45:15;;;;;;;18.67;4.80;;;;;;;15.51;83.60;99773.38;5061247;28;20048;-47
2022/10/29 10:47:47;;;;;;;16.13;4.97;;;;;;;15.55;83.55;99769.78;5063793;28;20048;-48
2022/10/29 10:52:53;;;;;;;11.23;5.78;;;;;;;15.59;83.55;99779.25;5040835;28;20414;-53
2022/10/29 10:55:27;;;;;;;11.23;5.78;;;;;;;15.54;83.53;99773.31;5006773;28;20061;-49
2022/10/29 11:00:42;;;;;;;14.60;4.00;;;;;;;15.57;83.97;99775.81;5048303;28;20766;-47
2022/10/29 11:03:18;;;;;;;13.13;4.05;;;;;;;15.64;83.41;99784.34;5050497;28;20072;-48
2022/10/29 11:05:53;;;;;;;14.00;4.18;;;;;;;15.76;83.76;99793.56;5033646;28;20077;-51
2022/10/29 11:11:12;;;;;;;14.93;6.13;;;;;;;16.10;82.81;99782.19;5039059;27;20445;-49
2022/10/29 11:13:41;;;;;;;13.98;6.82;;;;;;;16.05;83.50;99784.09;5019202;28;20069;-51
2022/10/29 11:18:54;;;;;;;16.05;4.55;;;;;;;16.09;82.90;99769.16;5075226;27;20746;-49
2022/10/29 11:29:43;;;;;;;7.78;4.50;;;;;;;16.35;82.98;99744.81;5075247;27;20413;-47
2022/10/29 11:32:24;;;;;;;13.85;5.40;;;;;;;16.45;82.49;99746.25;5050279;28;20134;-46
2022/10/29 11:37:39;;;;;;;13.93;3.08;;;;;;;16.59;82.67;99752.81;5049579;27;20389;-53
2022/10/29 11:40:34;;;;;;;14.23;3.83;;;;;;;16.68;82.37;99735.94;5018427;28;20044;-49
2022/10/29 11:43:02;;;;;;;10.55;3.83;;;;;;;16.75;82.15;99740.06;5015874;28;20046;-49
2022/10/29 11:48:21;;;;;;;9.52;4.55;;;;;;;16.78;81.04;99731.25;5004855;28;20751;-50
2022/10/29 12:04:29;;;;;;;9.60;3.05;;;;;;;16.77;82.34;99735.66;5048939;28;20401;-47
2022/10/29 12:07:23;;;;;;;9.02;3.40;;;;;;;16.86;82.25;99737.09;5023235;28;20147;-50
2022/10/29 12:15:30;;;;;;;11.88;4.40;;;;;;;17.45;81.04;99735.09;5039707;27;20408;-49
2022/10/29 12:18:24;;;;;;;9.60;3.78;;;;;;;17.48;82.24;99731.50;5055600;28;20072;-50
2022/10/29 12:26:57;;;;;;;13.25;3.53;;;;;;;17.63;80.25;99740.53;5010464;28;20868;-52
2022/10/29 12:29:38;;;;;;;12.05;3.20;;;;;;;17.58;79.96;99732.00;5001621;28;20188;-49
2022/10/29 12:35:19;;;;;;;13.00;5.75;;;;;;;17.53;79.70;99711.22;5006257;28;20888;-48
2022/10/29 12:40:29;;;;;;;10.38;2.85;;;;;;;17.72;81.01;99706.16;5032671;28;20384;-47
2022/10/29 12:43:02;;;;;;;15.70;4.28;;;;;;;17.89;80.46;99701.16;4995871;28;20133;-50
2022/10/29 12:45:52;;;;;;;9.55;3.05;;;;;;;17.96;80.24;99690.41;4999883;28;20747;-48
2022/10/29 12:49:06;;;;;;;15.65;3.50;;;;;;;18.09;79.50;99700.44;4978965;28;20054;-52
2022/10/29 12:51:44;;;;;;;9.38;3.42;;;;;;;18.14;79.09;99698.50;4981459;28;20138;-44
2022/10/29 12:54:39;;;;;;;12.73;3.25;;;;;;;18.19;79.65;99690.44;4978026;28;20046;-46
2022/10/29 12:59:50;;;;;;;10.25;4.50;;;;;;;18.61;79.00;99686.94;5008204;28;20974;-46
2022/10/29 13:05:15;;;;;;;12.85;4.03;;;;;;;18.62;79.42;99666.84;5059146;27;20412;-48
2022/10/29 13:15:40;;;;;;;8.68;4.38;;;;;;;18.72;77.62;99641.94;5056742;28;20399;-49
2022/10/29 13:20:50;;;;;;;10.25;3.75;;;;;;;18.99;77.01;99638.16;5054738;27;20437;-51
2022/10/29 13:26:02;;;;;;;9.00;2.00;;;;;;;18.81;77.14;99642.44;5015632;28;20416;-50
2022/10/29 13:41:41;;;;;;;9.95;2.75;;;;;;;18.78;76.87;99613.72;5014439;27;20388;-50
2022/10/29 13:49:28;;;;;;;9.05;3.70;;;;;;;18.84;76.81;99608.16;5099749;27;20376;-50
2022/10/29 13:55:00;;;;;;;4.63;2.15;;;;;;;18.88;76.93;99612.41;5037516;27;20884;-47
2022/10/29 13:58:06;;;;;;;5.63;1.80;;;;;;;18.92;76.29;99616.59;5034490;28;20169;-50
2022/10/29 14:00:35;;;;;;;6.03;1.95;;;;;;;19.00;76.92;99619.72;5034008;28;20488;-46
2022/10/29 14:03:27;;;;;;;8.35;2.08;;;;;;;19.03;75.90;99605.59;5036242;28;20049;-50
2022/10/29 14:06:07;;;;;;;8.30;2.53;;;;;;;19.00;75.79;99609.22;5062027;28;20140;-49
2022/10/29 14:11:19;;;;;;;6.97;2.72;;;;;;;19.02;75.46;99596.84;5043241;27;20402;-58
2022/10/29 14:13:48;;;;;;;11.38;2.17;;;;;;;19.06;75.80;99587.13;5010883;28;20137;-48
2022/10/29 14:16:19;;;;;;;6.15;1.65;;;;;;;19.07;75.68;99594.06;5007618;28;20509;-47
2022/10/29 14:18:47;;;;;;;6.80;2.67;;;;;;;19.16;75.91;99592.81;5020070;28;20054;-48
2022/10/29 14:24:03;;;;;;;8.20;4.03;;;;;;;19.24;75.30;99601.16;5063857;27;21120;-53
2022/10/29 14:26:34;;;;;;;5.68;2.95;;;;;;;19.26;74.81;99580.94;5035378;28;20057;-50
2022/10/29 14:29:22;;;;;;;6.93;1.90;;;;;;;19.25;74.89;99587.13;5039671;28;20455;-53